createdAt,value
2022-11-14T00:00:28.630Z,9.63
2022-11-14T00:02:55.440Z,9.67
2022-11-14T00:05:22.268Z,9.41
2022-11-14T00:07:48.778Z,9.70
2022-11-14T00:10:15.638Z,9.64
2022-11-14T00:12:42.250Z,9.47
2022-11-14T00:15:09.572Z,9.61
2022-11-14T00:17:36.288Z,9.50
2022-11-14T00:20:03.795Z,9.53
2022-11-14T00:22:30.219Z,9.63
2022-11-14T00:24:56.696Z,9.58
2022-11-14T00:27:23.183Z,9.58
2022-11-14T00:29:49.690Z,9.56
2022-11-14T00:32:16.266Z,9.55
2022-11-14T00:34:42.696Z,9.49
2022-11-14T00:37:09.350Z,9.60
2022-11-14T00:39:35.791Z,9.46
2022-11-14T00:42:02.211Z,9.47
2022-11-14T00:44:28.655Z,9.49
2022-11-14T00:46:55.099Z,9.42
2022-11-14T00:49:21.551Z,9.37
2022-11-14T00:51:47.997Z,9.41
2022-11-14T00:54:14.437Z,9.40
2022-11-14T00:56:40.966Z,9.40
2022-11-14T00:59:07.493Z,9.22
2022-11-14T01:01:33.990Z,9.32
2022-11-14T01:04:00.481Z,9.13
2022-11-14T01:06:26.974Z,9.19
2022-11-14T01:08:53.465Z,9.28
2022-11-14T01:11:22.372Z,9.31
2022-11-14T01:13:49.473Z,9.38
2022-11-14T01:16:16.302Z,9.37
2022-11-14T01:18:43.610Z,9.12
2022-11-14T01:21:12.678Z,9.06
2022-11-14T01:23:39.283Z,9.22
2022-11-14T01:26:09.663Z,8.81
2022-11-14T01:28:36.764Z,9.30
2022-11-14T01:31:15.949Z,9.21
2022-11-14T01:33:42.861Z,9.37
2022-11-14T01:36:10.706Z,9.28
2022-11-14T01:38:37.876Z,9.17
2022-11-14T01:41:04.996Z,9.24
2022-11-14T01:43:34.415Z,9.28
2022-11-14T01:46:01.050Z,9.22
2022-11-14T01:48:47.759Z,9.24
2022-11-14T01:51:23.243Z,9.23
2022-11-14T01:53:54.057Z,9.28
2022-11-14T01:56:26.763Z,8.79
2022-11-14T01:59:00.418Z,9.23
2022-11-14T02:01:30.258Z,9.25
2022-11-14T02:03:57.866Z,9.22
2022-11-14T02:06:27.793Z,9.09
2022-11-14T02:08:55.957Z,9.05
2022-11-14T02:11:22.396Z,9.11
2022-11-14T02:13:48.958Z,8.97
2022-11-14T02:16:15.811Z,9.03
2022-11-14T02:18:42.279Z,9.01
2022-11-14T02:21:08.713Z,8.29
2022-11-14T02:23:35.172Z,8.95
2022-11-14T02:26:01.708Z,8.89
2022-11-14T02:28:29.069Z,9.10
2022-11-14T02:30:55.838Z,9.06
2022-11-14T02:33:22.291Z,9.13
2022-11-14T02:35:48.890Z,9.16
2022-11-14T02:38:15.482Z,9.02
2022-11-14T02:40:42.005Z,8.94
2022-11-14T02:43:08.496Z,8.55
2022-11-14T02:45:34.972Z,9.05
2022-11-14T02:48:01.591Z,8.89
2022-11-14T02:50:28.680Z,9.03
2022-11-14T02:52:55.760Z,9.11
2022-11-14T02:55:22.233Z,9.20
2022-11-14T02:57:48.734Z,9.05
2022-11-14T03:00:15.649Z,9.01
2022-11-14T03:02:42.383Z,9.04
2022-11-14T03:05:09.133Z,8.83
2022-11-14T03:07:35.901Z,8.98
2022-11-14T03:10:02.489Z,8.55
2022-11-14T03:12:28.922Z,9.00
2022-11-14T03:14:55.362Z,9.05
2022-11-14T03:17:24.570Z,8.80
2022-11-14T03:19:51.016Z,8.82
2022-11-14T03:22:17.462Z,8.86
2022-11-14T03:24:43.923Z,9.04
2022-11-14T03:27:10.399Z,9.05
2022-11-14T03:29:37.468Z,9.06
2022-11-14T03:32:05.146Z,8.90
2022-11-14T03:34:31.765Z,8.86
2022-11-14T03:36:58.376Z,9.07
2022-11-14T03:39:24.921Z,9.06
2022-11-14T03:41:51.394Z,9.01
2022-11-14T03:44:18.044Z,8.95
2022-11-14T03:46:44.591Z,8.83
2022-11-14T03:49:11.011Z,9.07
2022-11-14T03:51:37.482Z,8.63
2022-11-14T03:54:04.161Z,8.96
2022-11-14T03:56:30.603Z,8.99
2022-11-14T03:58:57.017Z,8.94
2022-11-14T04:01:23.544Z,8.97
2022-11-14T04:03:50.028Z,8.90
2022-11-14T04:06:16.446Z,8.73
2022-11-14T04:08:42.914Z,8.58
2022-11-14T04:11:09.358Z,8.65
2022-11-14T04:13:35.860Z,8.57
2022-11-14T04:16:02.385Z,8.49
2022-11-14T04:18:29.196Z,8.87
2022-11-14T04:20:55.829Z,8.95
2022-11-14T04:23:22.314Z,8.79
2022-11-14T04:25:48.781Z,8.65
2022-11-14T04:28:15.310Z,8.91
2022-11-14T04:30:41.775Z,8.94
2022-11-14T04:33:08.451Z,8.58
2022-11-14T04:35:34.894Z,8.86
2022-11-14T04:38:01.334Z,8.82
2022-11-14T04:40:27.813Z,8.81
2022-11-14T04:42:54.265Z,7.86
2022-11-14T04:45:20.984Z,8.19
2022-11-14T04:47:47.461Z,8.78
2022-11-14T04:50:14.083Z,8.66
2022-11-14T04:52:40.514Z,8.68
2022-11-14T04:55:07.298Z,8.60
2022-11-14T04:57:33.774Z,8.71
2022-11-14T05:00:00.208Z,8.62
2022-11-14T05:02:26.716Z,8.16
2022-11-14T05:04:53.201Z,8.61
2022-11-14T05:07:19.732Z,8.68
2022-11-14T05:09:46.237Z,8.48
2022-11-14T05:12:12.682Z,8.75
2022-11-14T05:14:39.207Z,8.69
2022-11-14T05:17:05.628Z,8.65
2022-11-14T05:19:32.119Z,8.75
2022-11-14T05:21:58.507Z,8.75
2022-11-14T05:24:26.144Z,8.84
2022-11-14T05:26:52.604Z,8.82
2022-11-14T05:29:19.287Z,8.48
2022-11-14T05:31:45.750Z,8.83
2022-11-14T05:34:12.212Z,8.76
2022-11-14T05:36:38.706Z,8.42
2022-11-14T05:39:05.210Z,8.62
2022-11-14T05:41:31.714Z,8.46
2022-11-14T05:43:58.530Z,8.48
2022-11-14T05:46:25.007Z,8.52
2022-11-14T05:48:51.432Z,8.52
2022-11-14T05:51:17.855Z,7.90
2022-11-14T05:53:44.349Z,8.47
2022-11-14T05:56:12.571Z,8.47
2022-11-14T05:58:39.712Z,8.31
2022-11-14T06:01:11.943Z,8.55
2022-11-14T06:03:41.965Z,8.64
2022-11-14T06:06:10.479Z,8.67
2022-11-14T06:08:36.980Z,8.56
2022-11-14T06:11:05.871Z,8.81
2022-11-14T06:13:33.113Z,8.43
2022-11-14T06:16:08.330Z,8.68
2022-11-14T06:18:35.566Z,8.67
2022-11-14T06:21:08.363Z,8.64
2022-11-14T06:23:34.799Z,8.62
2022-11-14T06:26:02.996Z,8.59
2022-11-14T06:28:30.123Z,8.23
2022-11-14T06:31:01.592Z,8.63
2022-11-14T06:33:29.442Z,8.47
2022-11-14T06:36:01.128Z,8.63
2022-11-14T06:38:28.660Z,8.56
2022-11-14T06:41:11.664Z,8.51
2022-11-14T06:43:40.334Z,8.43
2022-11-14T06:46:09.879Z,8.38
2022-11-14T06:48:36.965Z,8.34
2022-11-14T06:51:04.708Z,8.33
2022-11-14T06:53:32.988Z,8.43
2022-11-14T06:56:01.718Z,8.56
2022-11-14T06:58:29.820Z,8.48
2022-11-14T07:00:57.272Z,8.54
2022-11-14T07:03:23.871Z,8.50
2022-11-14T07:05:50.365Z,8.52
2022-11-14T07:08:20.880Z,8.48
2022-11-14T07:10:47.720Z,8.47
2022-11-14T07:13:14.170Z,8.43
2022-11-14T07:15:40.641Z,8.29
2022-11-14T07:18:07.136Z,8.25
2022-11-14T07:20:33.594Z,8.41
2022-11-14T07:23:00.082Z,8.51
2022-11-14T07:25:26.611Z,8.55
2022-11-14T07:27:53.664Z,8.39
2022-11-14T07:30:20.642Z,8.51
2022-11-14T07:32:47.082Z,8.28
2022-11-14T07:35:13.713Z,8.56
2022-11-14T07:37:40.330Z,8.47
2022-11-14T07:40:07.474Z,8.55
2022-11-14T07:42:33.929Z,8.52
2022-11-14T07:45:00.357Z,8.53
2022-11-14T07:47:27.112Z,8.52
2022-11-14T07:49:53.639Z,8.37
2022-11-14T07:52:20.078Z,8.60
2022-11-14T07:54:46.517Z,8.45
2022-11-14T07:57:12.967Z,8.82
2022-11-14T07:59:39.385Z,8.67
2022-11-14T08:02:06.252Z,8.54
2022-11-14T08:04:32.903Z,8.78
2022-11-14T08:06:59.457Z,8.63
2022-11-14T08:09:25.990Z,8.44
2022-11-14T08:11:52.516Z,8.95
2022-11-14T08:14:19.016Z,8.48
2022-11-14T08:16:45.536Z,8.34
2022-11-14T08:19:11.998Z,8.76
2022-11-14T08:21:38.437Z,8.72
2022-11-14T08:24:05.181Z,8.88
2022-11-14T08:26:34.403Z,8.84
2022-11-14T08:29:01.333Z,8.86
2022-11-14T08:31:28.662Z,8.79
2022-11-14T08:33:55.243Z,8.91
2022-11-14T08:36:21.744Z,8.85
2022-11-14T08:38:51.347Z,8.80
2022-11-14T08:41:18.187Z,8.85
2022-11-14T08:43:44.631Z,8.58
2022-11-14T08:46:11.130Z,8.92
2022-11-14T08:48:37.569Z,8.64
2022-11-14T08:51:06.056Z,8.54
2022-11-14T08:53:33.644Z,8.64
2022-11-14T08:56:00.442Z,8.75
2022-11-14T08:58:32.222Z,8.59
2022-11-14T09:01:01.161Z,8.73
2022-11-14T09:03:27.686Z,8.74
2022-11-14T09:05:54.298Z,8.87
2022-11-14T09:08:21.094Z,8.56
2022-11-14T09:10:47.624Z,8.91
2022-11-14T09:13:14.080Z,8.91
2022-11-14T09:15:40.645Z,8.97
2022-11-14T09:18:07.094Z,8.96
2022-11-14T09:20:38.795Z,8.63
2022-11-14T09:23:06.462Z,8.62
2022-11-14T09:25:32.906Z,9.00
2022-11-14T09:28:04.471Z,9.03
2022-11-14T09:30:30.947Z,8.87
2022-11-14T09:33:05.648Z,9.02
2022-11-14T09:35:37.184Z,8.88
2022-11-14T09:38:06.868Z,8.71
2022-11-14T09:40:45.678Z,8.98
2022-11-14T09:43:35.057Z,9.04
2022-11-14T09:46:02.783Z,8.99
2022-11-14T09:48:31.916Z,8.86
2022-11-14T09:51:15.054Z,9.22
2022-11-14T09:54:01.604Z,9.19
2022-11-14T09:56:28.722Z,9.09
2022-11-14T09:58:56.551Z,9.34
2022-11-14T10:01:36.694Z,9.34
2022-11-14T10:04:31.422Z,9.34
2022-11-14T10:07:15.578Z,9.32
2022-11-14T10:09:54.527Z,9.50
2022-11-14T10:12:31.827Z,9.32
2022-11-14T10:15:05.413Z,9.25
2022-11-14T10:17:52.795Z,9.14
2022-11-14T10:20:37.473Z,9.58
2022-11-14T10:23:22.254Z,9.59
2022-11-14T10:26:25.438Z,9.50
2022-11-14T10:29:21.844Z,9.62
2022-11-14T10:32:21.697Z,9.70
2022-11-14T10:34:57.860Z,9.48
2022-11-14T10:37:46.664Z,9.70
2022-11-14T10:40:20.191Z,9.80
2022-11-14T10:42:50.217Z,9.88
2022-11-14T10:45:37.231Z,10.14
2022-11-14T10:48:13.137Z,10.22
2022-11-14T10:50:58.715Z,9.96
2022-11-14T10:53:31.942Z,10.40
2022-11-14T10:56:04.393Z,10.51
2022-11-14T10:58:42.022Z,10.15
2022-11-14T11:01:43.446Z,10.46
2022-11-14T11:04:32.472Z,10.69
2022-11-14T11:07:39.147Z,10.62
2022-11-14T11:10:24.389Z,11.05
2022-11-14T11:12:53.848Z,11.46
2022-11-14T11:15:21.759Z,11.76
2022-11-14T11:17:59.371Z,12.19
2022-11-14T11:20:36.525Z,12.46
2022-11-14T11:23:06.842Z,12.55
2022-11-14T11:25:34.293Z,12.51
2022-11-14T11:28:21.726Z,12.54
2022-11-14T11:31:05.671Z,12.88
2022-11-14T11:33:37.095Z,13.24
2022-11-14T11:36:23.385Z,13.39
2022-11-14T11:38:50.990Z,13.38
2022-11-14T11:42:07.234Z,13.90
2022-11-14T11:44:19.136Z,13.50
2022-11-14T11:46:56.821Z,13.93
2022-11-14T11:49:52.975Z,14.90
2022-11-14T11:52:42.432Z,16.33
2022-11-14T11:55:08.892Z,16.65
2022-11-14T11:58:16.837Z,15.46
2022-11-14T12:00:43.428Z,14.64
2022-11-14T12:03:13.651Z,13.95
2022-11-14T12:06:11.465Z,13.55
2022-11-14T12:08:56.413Z,14.38
2022-11-14T12:11:27.267Z,15.94
2022-11-14T12:13:59.638Z,17.10
2022-11-14T12:16:50.906Z,18.08
2022-11-14T12:20:08.341Z,17.44
2022-11-14T12:22:53.961Z,16.81
2022-11-14T12:25:57.287Z,17.49
2022-11-14T12:29:01.188Z,16.70
2022-11-14T12:31:32.535Z,15.32
2022-11-14T12:34:03.794Z,14.89
2022-11-14T12:36:33.313Z,14.52
2022-11-14T12:39:01.952Z,14.04
2022-11-14T12:41:32.307Z,13.18
2022-11-14T12:44:29.078Z,13.44
2022-11-14T12:47:04.431Z,13.22
2022-11-14T12:49:49.629Z,13.05
2022-11-14T12:52:41.139Z,13.08
2022-11-14T12:55:26.030Z,12.93
2022-11-14T12:57:55.394Z,13.22
2022-11-14T13:00:22.128Z,13.30
2022-11-14T13:03:03.154Z,14.43
2022-11-14T13:05:46.854Z,14.73
2022-11-14T13:08:37.257Z,14.30
2022-11-14T13:11:50.253Z,14.11
2022-11-14T13:14:37.143Z,13.63
2022-11-14T13:17:34.661Z,13.35
2022-11-14T13:20:40.878Z,13.36
2022-11-14T13:23:39.388Z,12.99
2022-11-14T13:26:11.797Z,12.92
2022-11-14T13:28:38.434Z,12.91
2022-11-14T13:31:25.439Z,12.66
2022-11-14T13:34:00.120Z,12.75
2022-11-14T13:36:54.612Z,12.53
2022-11-14T13:39:46.586Z,12.45
2022-11-14T13:42:31.677Z,12.02
2022-11-14T13:45:38.190Z,12.03
2022-11-14T13:48:10.665Z,12.18
2022-11-14T13:50:40.538Z,12.26
2022-11-14T13:53:17.371Z,12.64
2022-11-14T13:55:56.115Z,11.91
2022-11-14T13:58:28.460Z,12.21
2022-11-14T14:00:57.716Z,12.49
2022-11-14T14:04:17.745Z,12.99
2022-11-14T14:07:11.771Z,13.47
2022-11-14T14:09:54.122Z,12.37
2022-11-14T14:12:37.610Z,12.60
2022-11-14T14:15:31.160Z,12.57
2022-11-14T14:18:16.548Z,12.48
2022-11-14T14:20:55.056Z,12.32
2022-11-14T14:24:02.390Z,12.00
2022-11-14T14:27:05.669Z,11.67
2022-11-14T14:29:51.660Z,11.59
2022-11-14T14:32:19.930Z,11.59
2022-11-14T14:34:46.620Z,11.36
2022-11-14T14:37:49.822Z,11.46
2022-11-14T14:40:24.029Z,11.43
2022-11-14T14:42:51.214Z,11.23
2022-11-14T14:45:22.503Z,10.96
2022-11-14T14:47:58.445Z,11.07
2022-11-14T14:50:28.776Z,10.96
2022-11-14T14:53:03.191Z,10.32
2022-11-14T14:55:32.776Z,10.52
2022-11-14T14:58:24.936Z,10.55
2022-11-14T15:01:02.102Z,10.37
2022-11-14T15:03:45.182Z,9.75
2022-11-14T15:06:29.750Z,10.18
2022-11-14T15:08:57.986Z,10.14
2022-11-14T15:11:32.267Z,9.73
2022-11-14T15:14:00.745Z,10.05
2022-11-14T15:16:29.641Z,9.81
2022-11-14T15:18:57.949Z,9.59
2022-11-14T15:21:27.521Z,9.50
2022-11-14T15:24:14.769Z,9.55
2022-11-14T15:26:44.187Z,9.49
2022-11-14T15:29:21.918Z,9.55
2022-11-14T15:31:52.362Z,9.52
2022-11-14T15:34:23.873Z,9.45
2022-11-14T15:37:13.817Z,9.23
2022-11-14T15:39:41.402Z,9.15
2022-11-14T15:42:16.799Z,8.97
2022-11-14T15:44:43.816Z,8.75
2022-11-14T15:47:34.523Z,8.93
2022-11-14T15:50:04.946Z,8.80
2022-11-14T15:52:37.489Z,8.84
2022-11-14T15:55:10.669Z,8.74
2022-11-14T15:57:38.105Z,8.79
2022-11-14T16:00:05.743Z,8.66
2022-11-14T16:02:34.446Z,8.66
2022-11-14T16:05:04.434Z,8.17
2022-11-14T16:07:33.841Z,8.63
2022-11-14T16:10:00.471Z,8.53
2022-11-14T16:12:29.400Z,8.53
2022-11-14T16:14:56.084Z,8.26
2022-11-14T16:17:23.066Z,8.06
2022-11-14T16:19:52.876Z,8.40
2022-11-14T16:22:19.564Z,8.29
2022-11-14T16:24:50.686Z,8.17
2022-11-14T16:27:17.278Z,8.17
2022-11-14T16:29:43.997Z,8.30
2022-11-14T16:32:11.797Z,8.13
2022-11-14T16:34:38.478Z,8.08
2022-11-14T16:37:07.338Z,8.17
2022-11-14T16:39:33.976Z,7.80
2022-11-14T16:42:04.465Z,8.07
2022-11-14T16:44:38.968Z,7.93
2022-11-14T16:47:08.611Z,8.12
2022-11-14T16:49:35.195Z,7.85
2022-11-14T16:52:08.601Z,7.99
2022-11-14T16:54:37.862Z,8.02
2022-11-14T16:57:04.331Z,7.90
2022-11-14T16:59:31.205Z,8.00
2022-11-14T17:01:57.788Z,7.76
2022-11-14T17:04:24.452Z,8.00
2022-11-14T17:06:51.085Z,8.01
2022-11-14T17:09:17.636Z,7.98
2022-11-14T17:11:44.882Z,8.07
2022-11-14T17:14:12.212Z,7.34
2022-11-14T17:16:38.800Z,8.03
2022-11-14T17:19:05.775Z,7.85
2022-11-14T17:21:34.828Z,7.94
2022-11-14T17:24:01.720Z,8.18
2022-11-14T17:26:29.260Z,7.82
2022-11-14T17:28:55.938Z,7.76
2022-11-14T17:31:22.452Z,7.96
2022-11-14T17:33:53.818Z,8.03
2022-11-14T17:36:21.614Z,7.81
2022-11-14T17:38:48.311Z,8.03
2022-11-14T17:41:14.947Z,7.98
2022-11-14T17:43:41.709Z,7.97
2022-11-14T17:46:15.670Z,7.90
2022-11-14T17:48:44.097Z,8.03
2022-11-14T17:51:13.306Z,8.03
2022-11-14T17:53:40.203Z,8.09
2022-11-14T17:56:10.368Z,7.73
2022-11-14T17:58:36.775Z,7.70
2022-11-14T18:01:09.880Z,7.67
2022-11-14T18:03:36.429Z,8.03
2022-11-14T18:06:11.582Z,7.91
2022-11-14T18:08:38.514Z,7.67
2022-11-14T18:11:07.847Z,7.97
2022-11-14T18:13:34.383Z,7.93
2022-11-14T18:16:03.177Z,7.88
2022-11-14T18:18:31.848Z,7.83
2022-11-14T18:20:58.781Z,7.40
2022-11-14T18:23:25.538Z,7.70
2022-11-14T18:25:51.954Z,7.63
2022-11-14T18:28:18.402Z,7.15
2022-11-14T18:30:55.494Z,7.80
2022-11-14T18:33:23.078Z,7.41
2022-11-14T18:35:59.571Z,7.58
2022-11-14T18:38:29.113Z,7.34
2022-11-14T18:40:57.573Z,7.24
2022-11-14T18:43:24.264Z,7.58
2022-11-14T18:45:51.255Z,7.52
2022-11-14T18:48:18.044Z,6.84
2022-11-14T18:50:44.582Z,7.55
2022-11-14T18:53:11.185Z,6.92
2022-11-14T18:55:41.409Z,7.00
2022-11-14T18:58:08.164Z,7.14
2022-11-14T19:00:35.450Z,7.00
2022-11-14T19:03:06.004Z,7.04
2022-11-14T19:05:35.975Z,7.45
2022-11-14T19:08:03.341Z,6.92
2022-11-14T19:10:29.808Z,7.04
2022-11-14T19:12:56.211Z,7.41
2022-11-14T19:15:22.687Z,7.42
2022-11-14T19:17:49.150Z,7.36
2022-11-14T19:20:16.124Z,7.01
2022-11-14T19:22:42.702Z,7.33
2022-11-14T19:25:09.307Z,6.90
2022-11-14T19:27:35.904Z,7.40
2022-11-14T19:30:02.489Z,6.92
2022-11-14T19:32:29.166Z,6.92
2022-11-14T19:34:55.740Z,4.36
2022-11-14T19:37:22.303Z,7.20
2022-11-14T19:39:55.351Z,7.35
2022-11-14T19:42:21.974Z,7.23
2022-11-14T19:44:48.464Z,7.55
2022-11-14T19:47:15.010Z,7.55
2022-11-14T19:49:42.815Z,7.43
2022-11-14T19:52:09.335Z,6.83
2022-11-14T19:54:36.146Z,7.38
2022-11-14T19:57:02.619Z,7.61
2022-11-14T19:59:29.389Z,7.66
2022-11-14T20:01:56.001Z,7.46
2022-11-14T20:04:22.902Z,7.35
2022-11-14T20:06:49.408Z,7.47
2022-11-14T20:09:16.563Z,6.62
2022-11-14T20:11:43.122Z,7.47
2022-11-14T20:14:12.221Z,7.31
2022-11-14T20:16:38.913Z,7.39
2022-11-14T20:19:05.656Z,6.99
2022-11-14T20:21:34.135Z,6.86
2022-11-14T20:24:00.972Z,7.16
2022-11-14T20:26:27.771Z,7.26
2022-11-14T20:28:54.798Z,7.28
2022-11-14T20:31:24.323Z,7.28
2022-11-14T20:33:52.938Z,7.31
2022-11-14T20:36:25.290Z,7.28
2022-11-14T20:38:53.307Z,7.20
2022-11-14T20:41:20.801Z,6.75
2022-11-14T20:43:47.965Z,6.61
2022-11-14T20:46:20.286Z,6.89
2022-11-14T20:48:47.223Z,7.16
2022-11-14T20:51:25.961Z,7.06
2022-11-14T20:53:54.225Z,6.25
2022-11-14T20:56:21.775Z,7.02
2022-11-14T20:58:51.684Z,7.04
2022-11-14T21:01:18.257Z,7.09
2022-11-14T21:03:45.354Z,7.03
2022-11-14T21:06:13.066Z,7.04
2022-11-14T21:08:40.073Z,6.77
2022-11-14T21:11:18.129Z,7.01
2022-11-14T21:13:56.820Z,6.41
2022-11-14T21:16:31.451Z,6.97
2022-11-14T21:18:59.059Z,6.72
2022-11-14T21:21:30.412Z,6.85
2022-11-14T21:23:57.621Z,6.83
2022-11-14T21:26:29.341Z,6.84
2022-11-14T21:28:59.097Z,6.88
2022-11-14T21:31:28.505Z,6.80
2022-11-14T21:33:57.017Z,6.86
2022-11-14T21:39:15.324Z,6.73
2022-11-14T21:41:42.744Z,6.16
2022-11-14T21:44:14.500Z,6.71
2022-11-14T21:46:41.457Z,6.68
2022-11-14T21:49:08.153Z,6.68
2022-11-14T21:51:34.918Z,6.46
2022-11-14T21:54:06.342Z,6.65
2022-11-14T21:56:34.510Z,6.50
2022-11-14T21:59:16.096Z,6.78
2022-11-14T22:02:03.991Z,6.64
2022-11-14T22:04:31.617Z,6.83
2022-11-14T22:06:59.185Z,6.78
2022-11-14T22:09:29.361Z,6.50
2022-11-14T22:11:56.314Z,6.72
2022-11-14T22:14:23.197Z,6.72
2022-11-14T22:16:49.654Z,6.73
2022-11-14T22:19:16.348Z,6.41
2022-11-14T22:21:42.823Z,6.50
2022-11-14T22:24:09.278Z,6.67
2022-11-14T22:26:39.763Z,6.66
2022-11-14T22:29:07.009Z,6.51
2022-11-14T22:31:33.741Z,6.39
2022-11-14T22:34:00.472Z,6.57
2022-11-14T22:36:27.785Z,6.48
2022-11-14T22:38:56.037Z,6.52
2022-11-14T22:41:32.210Z,6.33
2022-11-14T22:43:59.869Z,6.33
2022-11-14T22:46:27.355Z,6.35
2022-11-14T22:48:54.403Z,6.24
2022-11-14T22:51:23.835Z,6.29
2022-11-14T22:53:52.524Z,6.27
2022-11-14T22:56:21.661Z,6.32
2022-11-14T22:58:48.685Z,6.30
2022-11-14T23:01:23.447Z,6.29
2022-11-14T23:03:57.665Z,6.31
2022-11-14T23:06:24.980Z,5.55
2022-11-14T23:08:52.455Z,6.17
2022-11-14T23:11:22.105Z,6.09
2022-11-14T23:13:51.960Z,6.11
2022-11-14T23:16:23.771Z,6.13
2022-11-14T23:18:52.867Z,6.17
2022-11-14T23:21:22.248Z,6.23
2022-11-14T23:23:57.293Z,6.23
2022-11-14T23:26:24.882Z,6.29
2022-11-14T23:28:51.880Z,6.04
2022-11-14T23:31:19.246Z,6.29
2022-11-14T23:33:50.637Z,6.27
2022-11-14T23:36:17.796Z,5.66
2022-11-14T23:38:44.343Z,6.23
2022-11-14T23:41:17.216Z,6.11
2022-11-14T23:43:43.736Z,5.95
2022-11-14T23:46:10.185Z,6.05
2022-11-14T23:48:36.734Z,6.14
2022-11-14T23:51:03.414Z,6.12
2022-11-14T23:53:30.490Z,6.09
2022-11-14T23:56:00.068Z,6.11
2022-11-14T23:58:28.544Z,5.87
